AirNav   Air Wisconsin Up To $57,000 Bonus
 
 1183 users online  

3CN5 Los Angeles County Sheriffs Dept South LA Heliport
Los Angeles, California, USA

GOING TO LOS ANGELES?


FAA INFORMATION EFFECTIVE 08 OCTOBER 2020

Location

FAA Identifier: 3CN5
Lat/Long: 33-55-43.0000N 118-17-56.0000W
33-55.716667N 118-17.933333W
33.9286111,-118.2988889
(estimated)
Elevation: 209 ft. / 64 m (estimated)
From city: 8 miles SE of LOS ANGELES, CA
Time zone: UTC -7 (UTC -8 during Standard Time)
Zip code: 90061

Heliport Operations

Heliport use: Private use. Permission required prior to landing
Activation date: 06/2010
Control tower: no
ARTCC: LOS ANGELES CENTER
FSS: HAWTHORNE FLIGHT SERVICE STATION
Attendance: CONTINUOUS
Wind indicator: lighted
Segmented circle: no
Lights: SS-SR

Heliport Communications

WX ASOS at HHR (1.8 nm W): PHONE 310-973-8930
WX AWOS-3PT at CPM (4 nm SE): 127.150 (310-631-4958)
WX ASOS at LAX (5 nm W): PHONE 310-568-1486
WX ASOS at SMO (9 nm NW): PHONE 310-392-6453
WX ASOS at LGB (10 nm SE): PHONE 562-424-0572
WX AWOS-3PT at EMT (16 nm NE): 118.75 ((626) 444-1107)
WX ASOS at FUL (16 nm E): PHONE 714-870-1372
WX ASOS at BUR (17 nm N): PHONE 818-841-1384
WX ASOS at VNY (19 nm NW): PHONE 818-904-9213

Nearby radio navigation aids

VOR radial/distance  VOR name  Freq  Var
LAXr077/6.6LOS ANGELES VORTAC113.6015E
SMOr107/9.3SANTA MONICA VOR/DME110.8015E
SLIr291/15.0SEAL BEACH VORTAC115.7015E
VNYr137/20.1VAN NUYS VOR/DME113.1015E
POMr236/27.0POMONA VORTAC110.4015E
ELBr284/32.1EL TORO VOR/DME117.2014E
SXCr355/33.8SANTA CATALINA VORTAC111.4015E
PDZr256/38.3PARADISE VORTAC112.2015E
FIMr117/38.7FILLMORE VORTAC112.5015E
VTUr092/39.0VENTURA VOR/DME108.2015E

Heliport Services

Runway Information

Helipad H1

Dimensions: 62 x 62 ft. / 19 x 19 m
Surface: concrete, in good condition
Runway edge lights: PERI
Latitude: 33-55.716667N
Longitude: 118-17.933333W
Elevation: 209.0 ft.
Traffic pattern: leftleft

Heliport Ownership and Management from official FAA records

Ownership: Privately-owned
Owner: COUNTY OF L.A. SHERIFF'S DEPT AERO
3235 LAKEWOOD BLVD
LONG BEACH, CA 90808
Phone 562-421-2701
Manager: SGT ERIC TSCHARANYAN
3235 LAKEWOOD BLVD
LONG BEACH, CA 90808
Phone 562-421-2701

Additional Remarks

SHERIFF'S HELICOPTER FREQUENCY WA6-8 122.975 MONITORED 24 HOURS, 7 DAYS A WEEK.
FOR CD CTC LOS ANGELES ARTCC AT 661-575-2079.

Instrument Procedures

There are no published instrument procedures at 3CN5.

Some nearby airports with instrument procedures:

KHHR - Jack Northrop Field/Hawthorne Municipal Airport (2 nm W)
KLAX - Los Angeles International Airport (5 nm W)
KTOA - Zamperini Field Airport (8 nm S)
KSMO - Santa Monica Municipal Airport (9 nm NW)
KLGB - Long Beach Airport (Daugherty Field) (10 nm SE)
KSLI - Los Alamitos Army Airfield (15 nm SE)
KEMT - San Gabriel Valley Airport (16 nm NE)
KFUL - Fullerton Municipal Airport (16 nm E)
KBUR - Bob Hope Airport (17 nm N)
KVNY - Van Nuys Airport (19 nm NW)
 
Loc | Ops | Rwys | IFR | FBO | Links
Com | Nav | Svcs | Stats | Notes
Aerial photo
No photo
 
Sectional chart

 
Airport distance calculator
Flying to Los Angeles County Sheriffs Dept South LA Heliport? Find the distance to fly.

From to 3CN5

Sunrise and sunset
Times for 21-Oct-2020
 Local
(UTC-7)
 Zulu
(UTC)
Morning civil twilight06:4013:40
Sunrise07:0514:05
Sunset18:1001:10
Evening civil twilight18:3601:36

Current date and time
Zulu (UTC)  21-Oct-2020 23:22:44
Local (UTC-7)  21-Oct-2020 16:22:44
 
METAR
KHHR 
2nm SW 
212253Z 25008KT 8SM CLR 22/15 A2980 RMK AO2 SLP089 T02220150
KLAX 
4nm W 
212253Z 26009KT 6SM HZ FEW020 21/15 A2980 RMK AO2 SLP089 T02110150
KCQT 
8nm NE 
212252Z AUTO 4SM HZ CLR 23/16 A2978 RMK AO2 SLP083 T02280156
KTOA 
9nm S 
212252Z 25011KT 10SM FEW015 21/17 A2980
KSMO 
9nm NW 
212251Z 21005KT 4SM HZ BKN021 21/16 A2980 RMK AO2 SLP088 T02110156
KLGB 
10nm SE 
212253Z 21006KT 10SM CLR 22/15 A2979 RMK AO2 SLP089 T02220150
KFUL 
16nm E 
212253Z VRB05KT 10SM CLR 24/15 A2978 RMK AO2 SLP083 T02440150
KEMT 
16nm NE 
212247Z 23006KT 3SM HZ CLR 24/16 A2979
KSLI 
16nm SE 
212258Z 20008KT 7SM FEW030 SCT250 23/16 A2979 RMK AO2A SLP091 T02320160
KBUR 
17nm N 
212253Z 18005KT 4SM HZ CLR 23/15 A2978 RMK AO2 SLP074 T02330150
TAF
KLAX 
4nm W 
212057Z 2121/2224 25009KT 5SM BR SCT021 TEMPO 2121/2122 BKN021 FM220100 26010KT P6SM BKN014 FM220300 26008KT 6SM BR OVC009 FM220800 VRB03KT P6SM OVC014 FM221700 19006KT P6SM OVC020 FM222100 25010KT P6SM BKN025
KSMO 
9nm NW 
211724Z 2118/2218 31003KT 3SM HZ OVC012 FM212000 23008KT 6SM HZ SCT015 FM220300 VRB03KT P6SM SKC FM220600 VRB03KT 5SM BR OVC008 FM220900 VRB03KT 6SM BR OVC012 FM221500 05004KT P6SM OVC015
KLGB 
10nm SE 
212001Z 2120/2218 25004KT 6SM HZ OVC016 FM212100 19008KT P6SM SCT016 FM212300 25006KT P6SM SKC FM220400 VRB03KT P6SM BKN009 FM220800 VRB03KT P6SM OVC016 FM221600 17005KT P6SM BKN020
KSLI 
16nm SE 
211301Z 2113/2219 VRB06KT 9000 BR OVC011 QNH2979INS BECMG 2117/2118 VRB06KT 8000 BR SCT020 QNH2978INS BECMG 2119/2120 VRB06KT 9999 NSW SKC QNH2977INS BECMG 2204/2205 VRB06KT 9000 BR BKN015 QNH2982INS TX26/2123Z TN17/2114Z
KBUR 
17nm N 
212119Z 2121/2218 17008KT 4SM HZ SKC FM220300 VRB03KT P6SM SKC FM220500 VRB03KT 6SM BR BKN008 FM221000 VRB03KT P6SM OVC014
KVNY 
20nm NW 
211724Z 2118/2218 00000KT 3SM HZ SCT011 FM212100 15008KT P6SM SKC FM220300 VRB03KT P6SM SKC FM220700 VRB03KT P6SM OVC009 FM221100 VRB03KT P6SM OVC014
NOTAMs
Click for the latest NOTAMs
NOTAMs are issued by the DoD/FAA and will open in a separate window not controlled by AirNav.

 

 
 

Would you like to see your business listed on this page?

 If your business provides an interesting product or service to pilots, flight crews, aircraft, or users of the Los Angeles County Sheriffs Dept South LA Heliport, you should consider listing it here.  To start the listing process, click on the button below
 
Add a business
 

Other Pages about Los Angeles County Sheriffs Dept South LA Heliport

Update a link
 
Copyright © AirNav, LLC. All rights reserved. Privacy Policy  Contact